WetterOnline ( https://www.wetteronline.de )

Wetter aktuell Warlow

Aktuelles Wetter: Marnitz (87m)

6-stündlich | Neueste Meldungen
Ortszeit Temperatur Wetter
Do, 19.05. 14:00 28.2° C leicht bewölkt
Do, 19.05. 8:00 18.7° C wolkig
Do, 19.05. 2:00 18.9° C wolkig
Mi, 18.05. 20:00 23.3° C wolkenlos
Mi, 18.05. 14:00 23.4° C leicht bewölkt
Mi, 18.05. 8:00 12.9° C -
Mi, 18.05. 2:00 11.3° C -
Di, 17.05. 20:00 18.9° C -
Ortszeit Temperatur Wetter
Do, 19.05. 14:00 28.2° C leicht bewölkt
Do, 19.05. 13:50 28.2° C leicht bewölkt
Do, 19.05. 13:40 28.6° C wolkenlos
Do, 19.05. 13:30 28.0° C fast wolkenlos
Do, 19.05. 13:20 28.0° C fast wolkenlos
Do, 19.05. 13:10 27.7° C leicht bewölkt
Do, 19.05. 13:00 27.5° C leicht bewölkt
Do, 19.05. 12:30 27.0° C leicht bewölkt
Do, 19.05. 12:00 26.8° C leicht bewölkt
Do, 19.05. 11:30 26.1° C leicht bewölkt
Do, 19.05. 11:00 25.9° C leicht bewölkt
Ortszeit Relative Feuchte Sichtweite
Do, 19.05. 14:00 36% 60 km
Do, 19.05. 8:00 64% 45 km
Do, 19.05. 2:00 58% 45 km
Mi, 18.05. 20:00 45% 60 km
Mi, 18.05. 14:00 43% >70 km
Mi, 18.05. 8:00 48% 35 km
Mi, 18.05. 2:00 59% 65 km
Di, 17.05. 20:00 67% >70 km
Ortszeit Relative Feuchte Sichtweite
Do, 19.05. 14:00 36% 60 km
Do, 19.05. 13:50 36% -
Do, 19.05. 13:40 36% -
Do, 19.05. 13:30 38% 60 km
Do, 19.05. 13:20 38% -
Do, 19.05. 13:10 37% -
Do, 19.05. 13:00 38% >70 km
Do, 19.05. 12:30 40% 50 km
Do, 19.05. 12:00 40% 50 km
Do, 19.05. 11:30 44% 65 km
Do, 19.05. 11:00 44% 60 km
Ortszeit Niederschlagsmenge Niederschlagsart
Do, 19.05. 14:00 0.0 l/m2 in 6 Std. -
Do, 19.05. 8:00 0.0 l/m2 in 12 Std. -
Do, 19.05. 2:00 0.0 l/m2 in 6 Std. -
Mi, 18.05. 20:00 0.0 l/m2 in 12 Std. -
Mi, 18.05. 14:00 0.0 l/m2 in 6 Std. -
Mi, 18.05. 8:00 0.0 l/m2 in 12 Std. -
Mi, 18.05. 2:00 0.0 l/m2 in 6 Std. -
Di, 17.05. 20:00 0.1 l/m2 in 12 Std. Regen
Ortszeit Niederschlagsmenge Niederschlagsart
Do, 19.05. 14:00 0.0 l/m2 in 1 Std. -
Do, 19.05. 13:50 keine Meldung -
Do, 19.05. 13:40 keine Meldung -
Do, 19.05. 13:30 0.0 l/m2 in 1 Std. -
Do, 19.05. 13:20 keine Meldung -
Do, 19.05. 13:10 keine Meldung -
Do, 19.05. 13:00 0.0 l/m2 in 1 Std. -
Do, 19.05. 12:30 0.0 l/m2 in 1 Std. -
Do, 19.05. 12:00 0.0 l/m2 in 1 Std. -
Do, 19.05. 11:30 0.0 l/m2 in 1 Std. -
Do, 19.05. 11:00 0.0 l/m2 in 1 Std. -
Ortszeit Stärke Spitze Richtung
km/h Bft. km/h Grad Sektor
Do, 19.05. 14:00 14 3 32 240° SW
Do, 19.05. 8:00 9 2 22 210° SW
Do, 19.05. 2:00 11 2 24 210° SW
Mi, 18.05. 20:00 9 2 31 200° S
Mi, 18.05. 14:00 14 3 32 190° S
Mi, 18.05. 8:00 15 3 28 170° S
Mi, 18.05. 2:00 9 2 24 140° SO
Di, 17.05. 20:00 6 1 13 320° NW
Ortszeit Stärke Spitze Richtung
km/h Bft. km/h Grad Sektor
Do, 19.05. 14:00 14 3 32 240° SW
Do, 19.05. 13:50 14 3 - 240° SW
Do, 19.05. 13:40 14 3 - 230° SW
Do, 19.05. 13:30 14 3 32 230° SW
Do, 19.05. 13:20 14 3 - 230° SW
Do, 19.05. 13:10 19 3 - 220° SW
Do, 19.05. 13:00 15 3 30 230° SW
Do, 19.05. 12:30 13 3 28 240° SW
Do, 19.05. 12:00 13 3 26 240° SW
Do, 19.05. 11:30 13 3 19 230° SW
Do, 19.05. 11:00 11 2 22 230° SW
Ortszeit Untergrenze Bedeckung Gattung
total tief tief mittel hoch
Do, 19.05. 14:00 1800 m 4/8 1/8 - - -
Do, 19.05. 8:00 7200 m 8/8 0/8 - - -
Do, 19.05. 2:00 7500 m 8/8 0/8 - - -
Mi, 18.05. 20:00 - 0/8 0/8 - - -
Mi, 18.05. 14:00 10500 m 3/8 0/8 - - -
Mi, 18.05. 8:00 - - - - - -
Mi, 18.05. 2:00 - - - - - -
Di, 17.05. 20:00 - - - - - -
Ortszeit Bedeckungsgrad in Achtel und Wolkenuntergrenze
Do, 19.05. 14:00 1(1800m) 4(6600m)
Do, 19.05. 13:50 1(1800m) 4(6600m) 4(10500m)
Do, 19.05. 13:40 keine Wolken
Do, 19.05. 13:30 1(9000m)
Do, 19.05. 13:20 1(9000m)
Do, 19.05. 13:10 3
Do, 19.05. 13:00 7(7500m) 7(10500m)
Do, 19.05. 12:30 6(7800m)
Do, 19.05. 12:00 3(7800m) 5(10500m) 5(12000m)
Do, 19.05. 11:30 2(8100m) 6(10500m)
Do, 19.05. 11:00 4(10500m) 5(10500m)
Ortszeit Luftdruck NN (hPa) Tendenz (hPa in 3 Std.)
Do, 19.05. 14:00 1018 - 1,7
Do, 19.05. 8:00 1021 - 0,1
Do, 19.05. 2:00 1021 - 0,7
Mi, 18.05. 20:00 1022 - 0,7
Mi, 18.05. 14:00 1024 - 1,2
Mi, 18.05. 8:00 1025 + 0,9
Mi, 18.05. 2:00 1024 + 0,7
Di, 17.05. 20:00 1021 + 0,4
Ortszeit Luftdruck NN (hPa) Tendenz (hPa in 3 Std.)
Do, 19.05. 14:00 1018 - 1,7
Do, 19.05. 13:50 1018 keine Meldung
Do, 19.05. 13:40 1018 keine Meldung
Do, 19.05. 13:30 1018 - 1,5
Do, 19.05. 13:20 1018 keine Meldung
Do, 19.05. 13:10 1018 keine Meldung
Do, 19.05. 13:00 1019 - 1,2
Do, 19.05. 12:30 1019 - 1,0
Do, 19.05. 12:00 1019 - 0,9
Do, 19.05. 11:30 1019 - 1,0
Do, 19.05. 11:00 1020 - 0,7
Ortszeit Schneehöhe (cm)
Do, 19.05. 14:00 0
Do, 19.05. 8:00 0
Do, 19.05. 2:00 0
Mi, 18.05. 20:00 0
Mi, 18.05. 14:00 0
Mi, 18.05. 8:00 0
Mi, 18.05. 2:00 0
Di, 17.05. 20:00 0
Ortszeit Schneehöhe (cm)
Do, 19.05. 14:00 0
Do, 19.05. 13:50 0
Do, 19.05. 13:40 0
Do, 19.05. 13:30 0
Do, 19.05. 13:20 0
Do, 19.05. 13:10 0
Do, 19.05. 13:00 0
Do, 19.05. 12:30 0
Do, 19.05. 12:00 0
Do, 19.05. 11:30 0
Do, 19.05. 11:00 0
Link zu dieser Seite / Seite empfehlen

Das Wetter in ...